Time;durP1;ratioP1;P1;durP2;ratioP2;P2;SDS_P1;SDS_P2;PMS_P1;PMS_P2;Temp;Humidity;BMP_temperature;BMP_pressure;BME280_temperature;BME280_humidity;BME280_pressure;Samples;Min_cycle;Max_cycle;Signal;HPM_P1;HPM_P2
2023/05/16 00:00:37;;;;;;;11.00;10.00;;;;;;;7.79;100.00;96562.47;5030103;28;20228;-67
2023/05/16 00:03:05;;;;;;;9.83;9.20;;;;;;;7.74;100.00;96559.53;5069405;28;20198;-68
2023/05/16 00:05:34;;;;;;;9.47;8.87;;;;;;;7.72;100.00;96564.19;5062535;28;20214;-67
2023/05/16 00:08:02;;;;;;;9.23;8.63;;;;;;;7.65;100.00;96561.47;5042458;28;20245;-69
2023/05/16 00:10:30;;;;;;;9.90;9.20;;;;;;;7.67;100.00;96556.84;5062434;28;21165;-67
2023/05/16 00:12:57;;;;;;;10.57;9.77;;;;;;;7.61;100.00;96556.72;5048687;28;20284;-67
2023/05/16 00:15:25;;;;;;;9.73;9.13;;;;;;;7.60;100.00;96550.66;5031984;28;20210;-71
2023/05/16 00:17:56;;;;;;;10.10;9.40;;;;;;;7.55;100.00;96557.47;5070327;28;20705;-68
2023/05/16 00:20:24;;;;;;;10.83;10.03;;;;;;;7.48;100.00;96554.72;5051885;28;20218;-69
2023/05/16 00:22:53;;;;;;;10.33;9.63;;;;;;;7.33;100.00;96541.50;5052012;27;22007;-69
2023/05/16 00:25:21;;;;;;;10.73;10.03;;;;;;;7.36;100.00;96563.06;5078720;27;20735;-69
2023/05/16 00:27:48;;;;;;;10.57;9.73;;;;;;;7.36;100.00;96559.59;5055227;27;20206;-68
2023/05/16 00:30:16;;;;;;;11.07;10.20;;;;;;;7.15;100.00;96531.28;5077403;27;20225;-69
2023/05/16 00:32:44;;;;;;;10.10;9.40;;;;;;;7.35;100.00;96561.44;5030828;27;20297;-68
2023/05/16 00:35:11;;;;;;;9.63;8.93;;;;;;;7.34;100.00;96562.44;5077415;27;20256;-68
2023/05/16 00:37:40;;;;;;;10.83;9.83;;;;;;;7.16;100.00;96535.56;5039642;27;20202;-68
2023/05/16 00:40:10;;;;;;;10.33;9.53;;;;;;;7.32;100.00;96558.31;5074910;27;20236;-71
2023/05/16 00:42:38;;;;;;;10.00;9.20;;;;;;;7.08;100.00;96529.38;5062036;27;20252;-68
2023/05/16 00:45:07;;;;;;;10.23;9.53;;;;;;;7.22;100.00;96562.03;5071034;27;20220;-71
2023/05/16 00:47:35;;;;;;;9.83;9.13;;;;;;;7.23;100.00;96554.97;5030193;27;20681;-69
2023/05/16 00:50:03;;;;;;;10.80;9.90;;;;;;;7.29;100.00;96559.50;5075692;27;20227;-69
2023/05/16 00:52:32;;;;;;;11.13;10.33;;;;;;;7.28;100.00;96559.66;5051561;28;20205;-67
2023/05/16 00:55:00;;;;;;;11.23;10.23;;;;;;;7.24;100.00;96560.03;5056705;28;20201;-69
2023/05/16 00:57:29;;;;;;;10.13;9.37;;;;;;;7.22;100.00;96569.94;5073495;28;20293;-68
2023/05/16 00:59:56;;;;;;;11.37;10.37;;;;;;;7.24;100.00;96560.03;5051633;28;20308;-67
2023/05/16 01:02:27;;;;;;;9.93;9.13;;;;;;;7.27;100.00;96565.94;5031787;27;20210;-69
2023/05/16 01:04:55;;;;;;;11.17;10.37;;;;;;;7.33;100.00;96567.84;5073529;27;20222;-68
2023/05/16 01:07:23;;;;;;;11.07;10.27;;;;;;;7.39;100.00;96565.34;5054072;27;20410;-71
2023/05/16 01:09:51;;;;;;;11.70;10.80;;;;;;;7.51;100.00;96563.09;5050830;27;20193;-69
2023/05/16 01:12:25;;;;;;;10.90;10.10;;;;;;;7.48;100.00;96552.06;5075444;28;20264;-69
2023/05/16 01:15:02;;;;;;;11.03;10.23;;;;;;;7.62;100.00;96559.19;5053130;27;21014;-69
2023/05/16 01:17:36;;;;;;;10.80;10.00;;;;;;;7.71;100.00;96562.56;5065564;28;20254;-68
2023/05/16 01:20:13;;;;;;;11.23;10.43;;;;;;;7.70;100.00;96566.19;5065151;27;20235;-70
2023/05/16 01:22:52;;;;;;;12.23;11.30;;;;;;;7.76;100.00;96560.19;5053489;28;20197;-68
2023/05/16 01:25:31;;;;;;;11.10;10.30;;;;;;;7.77;100.00;96561.84;5056141;27;20232;-71
2023/05/16 01:28:01;;;;;;;11.77;10.97;;;;;;;7.84;100.00;96558.47;5070231;27;21006;-71
2023/05/16 01:30:32;;;;;;;11.77;10.87;;;;;;;7.87;100.00;96560.75;5051156;27;20696;-67
2023/05/16 01:33:00;;;;;;;11.33;10.53;;;;;;;7.91;100.00;96560.19;5029374;27;20214;-71
2023/05/16 01:35:28;;;;;;;11.87;10.97;;;;;;;7.95;100.00;96550.94;5072618;27;20205;-70
2023/05/16 01:37:59;;;;;;;11.67;10.77;;;;;;;7.97;100.00;96556.00;5051686;27;21091;-70
2023/05/16 01:40:32;;;;;;;10.67;9.77;;;;;;;7.76;100.00;96528.53;5068796;27;20226;-69
2023/05/16 01:43:05;;;;;;;11.70;10.80;;;;;;;7.95;100.00;96543.03;5057490;27;20201;-70
2023/05/16 01:45:34;;;;;;;12.07;11.17;;;;;;;7.90;100.00;96526.09;5052691;27;20330;-68
2023/05/16 01:48:07;;;;;;;13.47;11.40;;;;;;;7.99;100.00;96542.66;5030220;28;21494;-70
2023/05/16 01:50:39;;;;;;;12.53;11.43;;;;;;;7.97;100.00;96537.53;5065365;28;22698;-67
2023/05/16 01:53:10;;;;;;;11.37;10.57;;;;;;;7.93;100.00;96541.56;5055198;27;20239;-68
2023/05/16 01:55:43;;;;;;;10.43;9.73;;;;;;;7.87;100.00;96543.09;5069434;28;20536;-67
2023/05/16 01:58:13;;;;;;;10.40;9.57;;;;;;;7.78;100.00;96541.56;5054291;27;20205;-68
2023/05/16 02:00:41;;;;;;;10.73;9.93;;;;;;;7.67;100.00;96541.00;5046684;27;20222;-67
2023/05/16 02:03:09;;;;;;;9.67;8.97;;;;;;;7.62;100.00;96550.47;5011779;28;20406;-69
2023/05/16 02:05:37;;;;;;;11.03;10.13;;;;;;;7.55;100.00;96545.06;5073997;27;20329;-69
2023/05/16 02:08:05;;;;;;;11.07;10.27;;;;;;;7.44;100.00;96527.06;5050572;28;20197;-67
2023/05/16 02:10:32;;;;;;;11.53;10.73;;;;;;;7.53;100.00;96540.00;5073287;27;20220;-66
2023/05/16 02:13:00;;;;;;;10.37;9.67;;;;;;;7.50;100.00;96532.47;5050376;27;20918;-66
2023/05/16 02:15:29;;;;;;;11.00;10.30;;;;;;;7.57;100.00;96534.38;5053854;28;20205;-70
2023/05/16 02:17:57;;;;;;;12.33;11.30;;;;;;;7.55;100.00;96529.25;5071015;27;20202;-69
2023/05/16 02:20:25;;;;;;;11.83;10.83;;;;;;;7.48;100.00;96534.47;5022270;27;20225;-67
2023/05/16 02:22:52;;;;;;;12.07;11.10;;;;;;;7.44;100.00;96530.53;5043737;28;20209;-69
2023/05/16 02:25:20;;;;;;;11.30;10.50;;;;;;;7.38;100.00;96523.34;5057298;27;20231;-68
2023/05/16 02:27:48;;;;;;;11.27;10.47;;;;;;;7.32;100.00;96530.16;5046029;28;20664;-67
2023/05/16 02:30:15;;;;;;;11.20;10.40;;;;;;;7.27;100.00;96531.69;5050544;27;20233;-69
2023/05/16 02:32:44;;;;;;;11.20;10.40;;;;;;;7.22;100.00;96532.25;5052158;27;20261;-67
2023/05/16 02:35:12;;;;;;;11.63;10.63;;;;;;;7.21;100.00;96528.78;5023748;28;20268;-69
2023/05/16 02:37:40;;;;;;;10.50;9.80;;;;;;;7.18;100.00;96529.13;5073672;27;20206;-69
2023/05/16 02:40:09;;;;;;;10.67;9.87;;;;;;;7.18;100.00;96530.94;5052449;27;20222;-70
2023/05/16 02:42:36;;;;;;;11.40;10.57;;;;;;;7.11;100.00;96533.47;5067424;28;20588;-68
2023/05/16 02:45:05;;;;;;;10.17;9.37;;;;;;;7.05;100.00;96524.47;5063994;28;20209;-68
2023/05/16 02:47:33;;;;;;;10.27;9.57;;;;;;;7.00;100.00;96531.25;5054356;28;20236;-68
2023/05/16 02:50:02;;;;;;;9.47;8.57;;;;;;;6.86;100.00;96546.03;5063496;27;20556;-70
2023/05/16 02:52:30;;;;;;;10.20;9.40;;;;;;;6.86;100.00;96540.75;4991857;28;20222;-68
2023/05/16 02:54:57;;;;;;;10.77;9.97;;;;;;;6.84;100.00;96558.56;5043847;28;20206;-69
2023/05/16 02:57:45;;;;;;;11.07;10.27;;;;;;;6.69;100.00;96524.25;5051806;28;20574;-68
2023/05/16 03:00:14;;;;;;;11.83;10.93;;;;;;;6.72;100.00;96529.19;5070051;28;20287;-70
2023/05/16 03:02:45;;;;;;;12.07;11.07;;;;;;;6.93;100.00;96563.56;5052812;28;20212;-67
2023/05/16 03:05:15;;;;;;;12.20;11.30;;;;;;;6.95;100.00;96558.13;5078092;28;20205;-69
2023/05/16 03:07:42;;;;;;;11.93;10.93;;;;;;;6.94;100.00;96559.94;5029725;28;20980;-68
2023/05/16 03:10:10;;;;;;;13.87;12.60;;;;;;;6.98;100.00;96559.59;5050609;28;20231;-68
2023/05/16 03:12:38;;;;;;;12.07;11.17;;;;;;;6.98;100.00;96565.69;5052484;28;20229;-67
2023/05/16 03:15:08;;;;;;;13.70;12.60;;;;;;;6.98;100.00;96562.22;5051503;28;20197;-68
2023/05/16 03:17:35;;;;;;;12.77;11.70;;;;;;;6.84;100.00;96562.00;5050342;28;21000;-67
2023/05/16 03:20:04;;;;;;;13.27;12.10;;;;;;;6.88;100.00;96568.53;5048600;28;20344;-70
2023/05/16 03:22:33;;;;;;;13.50;12.30;;;;;;;6.85;100.00;96571.53;5023232;28;20528;-68
2023/05/16 03:25:00;;;;;;;12.60;11.63;;;;;;;6.89;100.00;96572.00;5070422;28;20210;-69
2023/05/16 03:27:28;;;;;;;13.60;12.10;;;;;;;6.90;100.00;96565.75;5039259;28;20219;-69
2023/05/16 03:29:55;;;;;;;11.83;10.87;;;;;;;6.90;100.00;96569.19;5046690;28;20847;-66
2023/05/16 03:32:23;;;;;;;12.43;11.43;;;;;;;6.91;100.00;96573.47;5049362;28;20225;-69
2023/05/16 03:34:51;;;;;;;12.23;11.13;;;;;;;6.92;100.00;96577.72;5072619;28;20209;-70
2023/05/16 03:37:19;;;;;;;11.73;10.83;;;;;;;6.76;100.00;96557.59;5044792;28;20236;-68
2023/05/16 03:39:48;;;;;;;12.17;11.27;;;;;;;6.94;100.00;96580.19;5063374;28;20205;-72
2023/05/16 03:42:17;;;;;;;12.50;11.53;;;;;;;7.00;100.00;96581.28;5063684;28;20201;-69
2023/05/16 03:44:44;;;;;;;12.20;11.20;;;;;;;7.01;100.00;96590.84;5065136;28;20221;-71
2023/05/16 03:47:12;;;;;;;11.33;10.33;;;;;;;7.03;100.00;96578.34;5025771;28;20210;-70
2023/05/16 03:49:39;;;;;;;12.30;11.30;;;;;;;7.09;100.00;96588.16;5048790;28;20267;-70
2023/05/16 03:52:07;;;;;;;12.60;11.67;;;;;;;7.07;100.00;96583.06;5066915;28;20225;-70
2023/05/16 03:54:35;;;;;;;11.40;10.47;;;;;;;7.14;100.00;96575.28;5029096;28;20216;-71
2023/05/16 03:57:04;;;;;;;11.60;10.80;;;;;;;7.24;100.00;96585.56;5076665;28;20205;-70
2023/05/16 03:59:33;;;;;;;12.60;11.60;;;;;;;7.21;100.00;96584.09;5056966;27;20252;-71
2023/05/16 04:02:00;;;;;;;12.50;11.50;;;;;;;7.24;100.00;96589.03;5054170;27;20941;-70
2023/05/16 04:04:28;;;;;;;12.80;11.77;;;;;;;7.17;100.00;96590.72;5043204;27;21118;-71
2023/05/16 04:06:56;;;;;;;12.43;11.37;;;;;;;7.21;100.00;96599.09;5077277;27;20237;-71
2023/05/16 04:09:23;;;;;;;11.50;10.60;;;;;;;7.22;100.00;96591.00;5025490;27;20217;-70
2023/05/16 04:11:51;;;;;;;13.47;12.27;;;;;;;7.33;100.00;96596.84;5076519;28;20234;-71
2023/05/16 04:14:20;;;;;;;12.00;11.10;;;;;;;7.30;100.00;96598.03;5055723;27;20519;-71
2023/05/16 04:16:47;;;;;;;12.63;11.73;;;;;;;7.46;100.00;96598.88;5059360;27;20296;-68
2023/05/16 04:19:15;;;;;;;13.93;12.90;;;;;;;7.50;100.00;96595.72;5074980;27;20629;-68
2023/05/16 04:21:43;;;;;;;13.13;12.13;;;;;;;7.58;100.00;96601.91;5059470;27;20241;-69
2023/05/16 04:24:10;;;;;;;13.93;12.63;;;;;;;7.69;100.00;96604.09;5049278;27;20221;-70
2023/05/16 04:26:38;;;;;;;13.77;12.77;;;;;;;7.72;100.00;96606.38;5032829;27;20233;-70
2023/05/16 04:29:06;;;;;;;13.37;12.20;;;;;;;7.77;100.00;96605.84;5078095;27;20418;-70
2023/05/16 04:31:35;;;;;;;13.97;12.87;;;;;;;7.79;100.00;96603.84;5053146;27;20249;-72
2023/05/16 04:34:03;;;;;;;12.60;11.60;;;;;;;7.88;100.00;96597.47;5054542;27;20222;-69
2023/05/16 04:36:31;;;;;;;12.40;11.50;;;;;;;7.94;100.00;96603.88;5056790;27;20209;-69
2023/05/16 04:38:59;;;;;;;12.80;11.80;;;;;;;8.00;100.00;96594.41;5071118;27;20279;-71
2023/05/16 04:41:26;;;;;;;12.23;11.23;;;;;;;8.13;100.00;96599.84;5032097;27;20233;-70
2023/05/16 04:43:54;;;;;;;11.60;10.80;;;;;;;8.17;100.00;96595.84;5074294;27;20225;-69
2023/05/16 04:46:22;;;;;;;12.77;11.57;;;;;;;8.29;100.00;96598.84;5069013;27;20205;-70
2023/05/16 04:48:50;;;;;;;12.70;11.70;;;;;;;8.33;100.00;96589.56;5051135;27;20217;-69
2023/05/16 04:51:18;;;;;;;13.70;12.40;;;;;;;8.38;100.00;96591.66;5052833;27;21298;-69
2023/05/16 04:53:46;;;;;;;12.80;11.70;;;;;;;8.42;100.00;96586.81;5075608;27;20839;-67
2023/05/16 04:56:13;;;;;;;12.50;11.50;;;;;;;8.52;100.00;96582.06;5032883;28;20201;-70
2023/05/16 04:58:41;;;;;;;12.03;11.00;;;;;;;8.33;100.00;96547.31;5076991;27;20202;-72
2023/05/16 05:01:09;;;;;;;12.63;11.73;;;;;;;8.62;100.00;96577.34;5048940;27;20256;-72
2023/05/16 05:03:37;;;;;;;12.90;11.77;;;;;;;8.59;100.00;96556.59;5053589;27;20232;-72
2023/05/16 05:06:06;;;;;;;12.23;11.27;;;;;;;8.88;100.00;96578.59;5025864;27;20213;-69
2023/05/16 05:08:34;;;;;;;13.40;12.40;;;;;;;9.07;100.00;96576.34;5049715;27;20212;-70
2023/05/16 05:11:01;;;;;;;13.67;12.57;;;;;;;9.14;100.00;96561.38;5039261;27;20264;-70
2023/05/16 05:13:29;;;;;;;12.80;11.87;;;;;;;9.30;100.00;96568.22;5073372;28;20228;-70
2023/05/16 05:15:57;;;;;;;13.03;12.03;;;;;;;9.17;100.00;96544.31;5076474;28;20209;-67
2023/05/16 05:18:24;;;;;;;13.27;11.93;;;;;;;9.26;100.00;96536.03;5032316;27;20217;-67
2023/05/16 05:20:52;;;;;;;13.47;12.33;;;;;;;9.50;100.00;96567.56;5077532;28;20319;-69
2023/05/16 05:23:21;;;;;;;12.67;11.67;;;;;;;9.51;100.00;96571.84;5053049;27;20224;-67
2023/05/16 05:25:49;;;;;;;13.27;12.27;;;;;;;9.48;100.00;96575.69;5034917;27;20221;-69
2023/05/16 05:28:16;;;;;;;13.57;12.37;;;;;;;9.51;100.00;96582.41;5076346;27;20213;-67
2023/05/16 05:30:45;;;;;;;13.13;12.17;;;;;;;9.59;100.00;96581.44;5073646;28;20214;-70
2023/05/16 05:33:14;;;;;;;14.03;12.83;;;;;;;9.75;100.00;96589.09;5048215;27;20213;-67
2023/05/16 05:35:42;;;;;;;13.80;12.73;;;;;;;9.99;100.00;96579.88;5060230;28;20202;-69
2023/05/16 05:38:09;;;;;;;13.87;12.87;;;;;;;10.11;100.00;96574.03;5056647;27;20221;-67
2023/05/16 05:40:38;;;;;;;13.50;12.50;;;;;;;10.21;100.00;96577.13;5066561;28;20214;-69
2023/05/16 05:43:06;;;;;;;13.90;12.90;;;;;;;10.36;100.00;96576.19;5037452;27;20220;-69
2023/05/16 05:45:33;;;;;;;12.77;11.87;;;;;;;10.39;100.00;96570.50;5073663;27;20216;-69
2023/05/16 05:48:01;;;;;;;13.67;12.57;;;;;;;10.37;100.00;96564.59;5063279;27;20238;-69
2023/05/16 05:50:29;;;;;;;13.73;12.63;;;;;;;10.41;100.00;96568.50;5047699;27;20856;-67
2023/05/16 05:52:56;;;;;;;14.00;12.90;;;;;;;10.54;100.00;96562.44;5071238;28;20228;-69
2023/05/16 05:55:24;;;;;;;12.77;11.87;;;;;;;10.67;100.00;96540.47;5054230;28;20217;-67
2023/05/16 05:57:53;;;;;;;12.77;11.77;;;;;;;10.96;100.00;96559.66;5033063;27;20205;-70
2023/05/16 06:00:21;;;;;;;12.90;11.90;;;;;;;11.27;100.00;96556.44;5075957;28;20228;-68
2023/05/16 06:02:48;;;;;;;12.30;11.40;;;;;;;11.47;100.00;96549.50;5067231;27;20209;-69
2023/05/16 06:05:16;;;;;;;13.83;12.83;;;;;;;11.51;100.00;96538.25;5031304;27;20283;-68
2023/05/16 06:07:44;;;;;;;12.63;11.73;;;;;;;11.76;100.00;96548.22;5070019;28;20627;-69
2023/05/16 06:10:11;;;;;;;13.17;12.17;;;;;;;11.92;100.00;96533.69;5051494;27;21151;-68
2023/05/16 06:12:39;;;;;;;13.30;12.10;;;;;;;12.22;100.00;96543.03;5068784;27;20194;-70
2023/05/16 06:15:10;;;;;;;12.50;11.50;;;;;;;12.11;100.00;96545.31;5035750;28;20224;-69
2023/05/16 06:17:37;;;;;;;12.70;11.80;;;;;;;12.13;100.00;96551.22;5066671;28;20205;-70
2023/05/16 06:20:06;;;;;;;12.37;11.17;;;;;;;12.27;100.00;96540.56;5055672;27;20336;-69
2023/05/16 06:22:34;;;;;;;13.37;12.00;;;;;;;12.35;100.00;96548.31;5047203;27;20318;-68
2023/05/16 06:25:02;;;;;;;12.43;11.33;;;;;;;12.42;100.00;96546.44;5049813;27;21659;-70
2023/05/16 06:27:29;;;;;;;11.87;11.03;;;;;;;12.51;100.00;96552.31;5069316;27;20219;-70
2023/05/16 06:29:57;;;;;;;11.43;10.53;;;;;;;12.53;100.00;96539.63;5034314;27;20210;-69
2023/05/16 06:32:26;;;;;;;11.13;10.27;;;;;;;12.68;100.00;96539.34;5069245;27;20201;-67
2023/05/16 06:34:54;;;;;;;12.10;11.20;;;;;;;12.74;100.00;96541.16;5069653;28;20253;-70
2023/05/16 06:37:22;;;;;;;10.93;10.13;;;;;;;12.71;100.00;96538.09;5032365;27;20202;-68
2023/05/16 06:39:49;;;;;;;10.87;10.17;;;;;;;12.59;100.00;96543.28;5046475;28;20202;-70
2023/05/16 06:42:18;;;;;;;10.80;9.90;;;;;;;12.67;100.00;96540.34;5075056;28;20756;-68
2023/05/16 06:44:46;;;;;;;12.40;11.30;;;;;;;12.76;100.00;96537.47;5070137;28;21170;-69
2023/05/16 06:47:13;;;;;;;11.33;10.43;;;;;;;12.84;100.00;96534.56;5029648;27;20641;-67
2023/05/16 06:49:43;;;;;;;10.50;9.70;;;;;;;12.90;100.00;96532.91;5071603;27;20193;-70
2023/05/16 06:52:11;;;;;;;11.00;10.10;;;;;;;12.94;100.00;96529.56;5046654;27;20616;-70
2023/05/16 06:54:38;;;;;;;11.00;10.20;;;;;;;12.88;100.00;96528.59;5035376;28;20989;-69
2023/05/16 06:57:07;;;;;;;10.80;10.20;;;;;;;13.01;100.00;96535.66;5072935;28;20262;-70
2023/05/16 06:59:35;;;;;;;10.77;9.87;;;;;;;12.82;100.00;96549.91;5070671;28;20193;-68
2023/05/16 07:02:02;;;;;;;10.90;10.10;;;;;;;12.49;100.00;96521.66;5029405;28;20229;-69
2023/05/16 07:04:30;;;;;;;11.67;10.77;;;;;;;12.62;100.00;96544.72;5067816;28;20210;-69
2023/05/16 07:06:59;;;;;;;10.50;9.70;;;;;;;12.57;100.00;96551.47;5074477;28;20297;-69
2023/05/16 07:09:27;;;;;;;10.77;9.97;;;;;;;12.58;100.00;96550.44;5027271;28;20265;-69
2023/05/16 07:11:54;;;;;;;10.37;9.67;;;;;;;12.95;100.00;96543.69;5052697;28;20225;-69
2023/05/16 07:14:22;;;;;;;12.03;11.13;;;;;;;13.30;100.00;96543.25;5070858;28;20321;-67
2023/05/16 07:16:50;;;;;;;11.77;10.80;;;;;;;13.70;100.00;96539.44;5006108;28;20214;-67
2023/05/16 07:19:17;;;;;;;11.30;10.37;;;;;;;13.85;100.00;96542.56;5071392;28;20197;-70
2023/05/16 07:21:45;;;;;;;11.30;10.30;;;;;;;13.88;100.00;96547.44;5058037;28;20228;-69
2023/05/16 07:24:14;;;;;;;10.57;9.87;;;;;;;13.99;100.00;96543.22;5023890;28;20913;-68
2023/05/16 07:26:42;;;;;;;10.37;9.53;;;;;;;14.05;100.00;96544.19;5050820;28;20211;-68
2023/05/16 07:29:09;;;;;;;10.40;9.53;;;;;;;14.06;100.00;96548.47;5071029;28;20193;-69
2023/05/16 07:31:37;;;;;;;11.57;10.47;;;;;;;14.02;100.00;96552.63;5030581;27;20289;-72
2023/05/16 07:34:05;;;;;;;12.13;11.13;;;;;;;13.83;100.00;96559.78;5076958;27;20217;-72
2023/05/16 07:36:33;;;;;;;10.03;9.23;;;;;;;13.76;100.00;96557.19;5074136;27;21695;-70
2023/05/16 07:39:01;;;;;;;11.33;10.43;;;;;;;13.68;100.00;96563.63;5035032;28;20235;-70
2023/05/16 07:41:30;;;;;;;10.53;9.73;;;;;;;13.63;100.00;96565.31;5056493;27;20343;-70
2023/05/16 07:43:57;;;;;;;10.70;9.83;;;;;;;13.84;100.00;96566.75;5055641;27;20296;-69
2023/05/16 07:46:25;;;;;;;11.13;10.33;;;;;;;14.44;100.00;96571.41;5039234;27;20249;-69
2023/05/16 07:48:53;;;;;;;9.57;8.97;;;;;;;14.58;100.00;96569.41;5074829;27;20213;-67
2023/05/16 07:51:20;;;;;;;10.83;10.03;;;;;;;14.79;100.00;96567.31;5078412;28;21097;-67
2023/05/16 07:53:48;;;;;;;11.40;10.30;;;;;;;14.84;100.00;96551.44;5055130;27;20255;-68
2023/05/16 07:56:16;;;;;;;11.27;10.47;;;;;;;14.82;100.00;96552.72;5034861;27;20556;-67
2023/05/16 07:58:47;;;;;;;11.93;10.90;;;;;;;14.45;100.00;96566.91;5056698;27;20211;-67
2023/05/16 08:01:15;;;;;;;11.33;10.30;;;;;;;14.15;100.00;96563.13;5076306;28;20935;-68
2023/05/16 08:03:43;;;;;;;10.80;10.03;;;;;;;13.92;100.00;96563.78;5029372;27;21246;-67
2023/05/16 08:06:11;;;;;;;11.47;10.60;;;;;;;13.92;100.00;96566.44;5077072;27;20207;-69
2023/05/16 08:08:39;;;;;;;11.30;10.40;;;;;;;14.13;100.00;96554.53;5055795;27;20321;-67
2023/05/16 08:11:06;;;;;;;11.23;10.33;;;;;;;14.13;100.00;96559.06;5051352;27;20232;-67
2023/05/16 08:13:34;;;;;;;11.03;10.23;;;;;;;14.00;100.00;96565.34;5032305;28;20380;-68
2023/05/16 08:16:03;;;;;;;11.37;10.43;;;;;;;14.34;100.00;96557.81;5072249;28;20331;-67
2023/05/16 08:18:31;;;;;;;10.93;10.03;;;;;;;14.56;100.00;96565.31;5036506;27;21044;-69
2023/05/16 08:20:59;;;;;;;11.43;10.63;;;;;;;14.65;100.00;96565.81;5076214;27;20265;-67
2023/05/16 08:23:26;;;;;;;10.73;9.83;;;;;;;14.58;100.00;96555.25;5071523;27;20209;-67
2023/05/16 08:25:54;;;;;;;11.97;10.87;;;;;;;14.53;100.00;96558.59;5041731;27;20292;-67
2023/05/16 08:28:21;;;;;;;10.30;9.60;;;;;;;14.35;100.00;96555.94;5034472;27;21358;-67
2023/05/16 08:30:49;;;;;;;10.73;9.90;;;;;;;14.35;100.00;96559.44;5073725;27;20619;-67
2023/05/16 08:33:18;;;;;;;10.90;10.10;;;;;;;14.68;100.00;96554.72;5030305;27;21706;-66
2023/05/16 08:35:47;;;;;;;10.23;9.40;;;;;;;15.05;100.00;96555.47;5077965;27;20229;-67
2023/05/16 08:38:15;;;;;;;11.47;10.67;;;;;;;15.31;100.00;96555.28;5073287;27;21518;-67
2023/05/16 08:40:42;;;;;;;10.37;9.60;;;;;;;15.38;100.00;96566.66;5058436;27;20792;-68
2023/05/16 08:43:10;;;;;;;10.57;9.87;;;;;;;15.69;100.00;96561.22;5050131;27;23295;-68
2023/05/16 08:45:40;;;;;;;10.73;9.83;;;;;;;16.00;100.00;96556.59;5056713;27;20733;-68
2023/05/16 08:48:07;;;;;;;11.37;10.53;;;;;;;16.13;100.00;96556.34;5074706;27;20227;-66
2023/05/16 08:50:38;;;;;;;10.60;9.50;;;;;;;16.43;100.00;96562.56;5030675;28;20302;-66
2023/05/16 08:53:07;;;;;;;10.47;9.60;;;;;;;16.70;100.00;96562.03;5072101;27;20522;-67
2023/05/16 08:55:36;;;;;;;10.57;9.63;;;;;;;16.93;100.00;96561.09;5055291;28;20222;-66
2023/05/16 08:58:04;;;;;;;10.13;9.23;;;;;;;16.91;100.00;96566.69;5059404;27;20688;-67
2023/05/16 09:00:32;;;;;;;9.47;8.73;;;;;;;17.10;100.00;96560.34;5052734;27;20224;-68
2023/05/16 09:03:00;;;;;;;10.63;9.93;;;;;;;16.67;100.00;96560.63;5072365;27;20237;-66
2023/05/16 09:05:29;;;;;;;10.90;10.07;;;;;;;16.81;100.00;96565.69;5036642;27;20296;-67
2023/05/16 09:07:59;;;;;;;10.07;9.27;;;;;;;16.60;100.00;96567.97;5069988;28;20213;-66
2023/05/16 09:10:26;;;;;;;10.40;9.40;;;;;;;16.86;100.00;96542.50;5054542;27;20290;-67
2023/05/16 09:12:54;;;;;;;9.47;8.67;;;;;;;16.92;100.00;96548.78;5059960;27;20204;-66
2023/05/16 09:15:22;;;;;;;9.60;9.00;;;;;;;16.83;100.00;96545.66;5052251;28;20994;-67
2023/05/16 09:17:49;;;;;;;11.30;10.30;;;;;;;16.69;100.00;96547.81;5073520;28;20320;-67
2023/05/16 09:20:18;;;;;;;11.47;10.53;;;;;;;16.45;100.00;96542.53;5034306;27;20222;-66
2023/05/16 09:22:53;;;;;;;11.07;10.23;;;;;;;16.00;100.00;96541.38;5075117;27;20205;-66
2023/05/16 09:25:24;;;;;;;11.57;10.73;;;;;;;15.73;100.00;96541.84;5053179;27;20208;-67
2023/05/16 09:27:55;;;;;;;11.70;10.77;;;;;;;15.73;100.00;96536.50;5072450;27;20669;-66
2023/05/16 09:30:24;;;;;;;12.73;11.63;;;;;;;15.72;100.00;96526.84;5046390;27;20978;-69
2023/05/16 09:32:52;;;;;;;11.73;10.83;;;;;;;16.05;100.00;96538.00;5072576;27;20293;-69
2023/05/16 09:35:21;;;;;;;11.13;10.23;;;;;;;16.30;100.00;96545.75;5034943;27;20222;-69
2023/05/16 09:38:13;;;;;;;10.03;9.30;;;;;;;16.37;100.00;96542.13;5073115;28;20197;-69
2023/05/16 09:40:42;;;;;;;11.67;10.73;;;;;;;16.63;100.00;96552.25;5055839;27;20267;-69
2023/05/16 09:43:10;;;;;;;11.33;10.40;;;;;;;16.86;100.00;96549.75;5073138;27;20288;-69
2023/05/16 09:45:38;;;;;;;11.83;10.43;;;;;;;17.11;100.00;96545.91;5060994;27;20316;-69
2023/05/16 09:48:07;;;;;;;11.07;10.17;;;;;;;17.29;100.00;96537.66;5049665;27;20364;-69
2023/05/16 09:50:37;;;;;;;11.13;10.33;;;;;;;17.31;100.00;96534.72;5078630;27;20225;-68
2023/05/16 09:53:06;;;;;;;11.33;10.43;;;;;;;17.14;100.00;96535.53;5027961;27;20664;-68
2023/05/16 09:55:34;;;;;;;11.13;10.43;;;;;;;17.10;100.00;96536.25;5076918;27;20248;-67
2023/05/16 09:58:03;;;;;;;10.90;10.20;;;;;;;17.23;100.00;96535.94;5050573;27;20992;-68
2023/05/16 10:00:32;;;;;;;11.33;10.33;;;;;;;16.86;100.00;96531.03;5062338;27;20692;-70
2023/05/16 10:03:01;;;;;;;11.20;10.20;;;;;;;16.86;100.00;96523.78;5048175;27;20207;-71
2023/05/16 10:05:32;;;;;;;10.67;9.87;;;;;;;17.04;100.00;96506.72;5076385;28;20202;-68
2023/05/16 10:08:02;;;;;;;12.00;11.00;;;;;;;17.59;100.00;96520.44;5026193;28;20217;-67
2023/05/16 10:10:31;;;;;;;10.53;9.73;;;;;;;17.68;100.00;96507.44;5074013;28;20226;-67
2023/05/16 10:13:00;;;;;;;9.10;8.43;;;;;;;18.06;100.00;96531.84;5051878;27;20980;-66
2023/05/16 10:15:29;;;;;;;8.83;8.17;;;;;;;18.14;99.89;96546.66;5060500;27;20389;-67
2023/05/16 10:17:59;;;;;;;8.87;8.27;;;;;;;18.02;96.40;96544.13;5057084;28;20217;-67
2023/05/16 10:20:27;;;;;;;8.70;8.10;;;;;;;17.75;99.45;96536.75;5074376;28;20343;-67
2023/05/16 10:22:56;;;;;;;8.77;8.10;;;;;;;17.55;100.00;96529.22;5048098;28;20546;-67
2023/05/16 10:25:29;;;;;;;8.33;7.63;;;;;;;17.40;100.00;96535.13;5063466;27;20201;-67
2023/05/16 10:27:58;;;;;;;8.33;7.80;;;;;;;17.33;100.00;96544.16;5056757;27;20210;-66
2023/05/16 10:30:25;;;;;;;8.63;7.93;;;;;;;17.28;100.00;96529.84;5059677;27;20942;-67
2023/05/16 10:32:56;;;;;;;8.37;7.70;;;;;;;17.24;100.00;96520.69;5072069;28;20229;-67
2023/05/16 10:35:25;;;;;;;8.43;7.90;;;;;;;17.44;97.45;96525.56;5055388;27;20292;-69
2023/05/16 10:37:54;;;;;;;8.53;7.87;;;;;;;17.65;100.00;96524.81;5048407;27;20222;-67
2023/05/16 10:40:22;;;;;;;8.90;8.07;;;;;;;17.70;96.35;96525.94;5062216;28;21294;-66
2023/05/16 10:42:56;;;;;;;7.93;7.33;;;;;;;17.85;94.51;96514.66;5076142;27;20603;-66
2023/05/16 10:45:24;;;;;;;8.63;7.90;;;;;;;17.84;96.29;96521.06;5040816;27;20685;-66
2023/05/16 10:47:55;;;;;;;10.70;7.33;;;;;;;18.04;97.01;96520.56;5071192;28;20202;-67
2023/05/16 10:50:33;;;;;;;7.43;6.77;;;;;;;18.41;96.04;96522.63;5051874;27;20233;-68
2023/05/16 10:53:14;;;;;;;7.93;7.33;;;;;;;18.38;88.78;96531.16;5065703;28;20516;-67
2023/05/16 10:55:45;;;;;;;8.03;7.40;;;;;;;18.27;85.98;96524.88;5035378;27;20267;-67
2023/05/16 10:58:12;;;;;;;7.23;6.70;;;;;;;18.50;84.96;96534.50;5074920;27;20197;-67
2023/05/16 11:00:40;;;;;;;8.07;7.27;;;;;;;18.27;88.44;96526.72;5039593;28;20313;-67
2023/05/16 11:03:24;;;;;;;6.50;6.10;;;;;;;18.13;90.65;96532.47;5068040;28;20316;-67
2023/05/16 11:05:53;;;;;;;7.50;7.00;;;;;;;18.26;90.95;96530.47;5048009;28;20206;-66
2023/05/16 11:08:20;;;;;;;7.97;7.27;;;;;;;18.08;87.59;96537.75;5073538;28;21365;-66
2023/05/16 11:10:48;;;;;;;7.53;6.93;;;;;;;17.56;90.90;96526.28;5030481;28;20336;-66
2023/05/16 11:13:18;;;;;;;7.37;6.87;;;;;;;17.49;94.63;96536.34;5074286;28;20197;-67
2023/05/16 11:15:46;;;;;;;7.70;7.00;;;;;;;17.36;92.96;96532.94;5054593;28;20340;-66
2023/05/16 11:18:17;;;;;;;7.33;6.67;;;;;;;17.33;97.06;96530.75;5054878;28;21171;-66
2023/05/16 11:20:45;;;;;;;6.80;6.10;;;;;;;17.53;93.78;96524.09;5049430;28;20232;-66
2023/05/16 11:23:20;;;;;;;8.93;7.03;;;;;;;17.75;89.46;96531.38;5071373;28;20194;-66